Time;durP1;ratioP1;P1;durP2;ratioP2;P2;SDS_P1;SDS_P2;PMS_P1;PMS_P2;Temp;Humidity;BMP_temperature;BMP_pressure;BME280_temperature;BME280_humidity;BME280_pressure;Samples;Min_cycle;Max_cycle;Signal;HPM_P1;HPM_P2
2020/12/08 00:00:08;;;;;;;32.08;29.45;;;4.20;91.30;;;;;;4975224;28;20208;-77
2020/12/08 00:02:34;;;;;;;32.28;29.83;;;4.10;89.00;;;;;;4975630;28;20223;-77
2020/12/08 00:05:01;;;;;;;30.15;27.70;;;4.10;88.20;;;;;;4975409;28;20203;-78
2020/12/08 00:07:28;;;;;;;29.17;26.77;;;4.10;87.40;;;;;;4974966;28;20224;-77
2020/12/08 00:09:54;;;;;;;32.13;29.60;;;4.10;87.20;;;;;;4974959;28;20206;-77
2020/12/08 00:12:24;;;;;;;29.60;27.10;;;4.20;87.10;;;;;;4974678;28;20204;-77
2020/12/08 00:14:51;;;;;;;30.20;27.67;;;4.30;86.50;;;;;;4975319;28;20207;-77
2020/12/08 00:17:17;;;;;;;30.30;27.80;;;4.40;86.30;;;;;;4975453;28;20229;-77
2020/12/08 00:19:43;;;;;;;30.80;28.33;;;4.40;86.00;;;;;;4975271;28;20210;-77
2020/12/08 00:22:10;;;;;;;31.27;28.63;;;4.40;86.00;;;;;;4975082;28;20196;-77
2020/12/08 00:24:37;;;;;;;30.00;27.50;;;4.30;86.30;;;;;;4975076;28;20191;-77
2020/12/08 00:27:04;;;;;;;30.90;28.10;;;4.40;86.30;;;;;;4974884;28;20697;-77
2020/12/08 00:29:30;;;;;;;30.40;27.80;;;4.40;86.10;;;;;;4974657;28;20195;-77
2020/12/08 00:31:58;;;;;;;31.85;29.25;;;4.30;86.00;;;;;;4974450;28;20255;-78
2020/12/08 00:34:24;;;;;;;33.72;30.80;;;4.20;86.30;;;;;;4974931;28;20234;-77
2020/12/08 00:36:50;;;;;;;33.40;30.33;;;4.30;86.40;;;;;;4974685;28;20219;-77
2020/12/08 00:39:16;;;;;;;31.80;28.98;;;4.40;87.40;;;;;;4975009;28;20665;-77
2020/12/08 00:41:43;;;;;;;32.38;29.60;;;4.30;87.90;;;;;;4974886;28;20196;-77
2020/12/08 00:44:09;;;;;;;32.65;29.65;;;4.40;87.40;;;;;;4974660;28;20203;-77
2020/12/08 00:46:35;;;;;;;30.98;28.38;;;4.40;86.90;;;;;;4974647;28;20223;-77
2020/12/08 00:49:03;;;;;;;32.38;29.65;;;4.60;86.10;;;;;;4974630;28;20214;-77
2020/12/08 00:51:29;;;;;;;33.08;30.08;;;4.50;86.20;;;;;;4974252;28;20683;-77
2020/12/08 00:53:55;;;;;;;32.00;29.23;;;4.50;86.00;;;;;;4974510;28;20208;-77
2020/12/08 00:56:22;;;;;;;33.05;30.05;;;4.50;86.10;;;;;;4974401;28;20306;-77
2020/12/08 00:58:48;;;;;;;31.55;27.92;;;4.60;85.30;;;;;;4974551;28;20203;-78
2020/12/08 01:01:14;;;;;;;41.00;29.52;;;4.50;94.20;;;;;;4974134;28;20658;-77
2020/12/08 01:03:41;;;;;;;1006.95;142.48;;;4.50;92.10;;;;;;4974631;28;20205;-77
2020/12/08 01:06:10;;;;;;;35.22;31.02;;;4.40;95.10;;;;;;4974729;28;20220;-77
2020/12/08 01:08:36;;;;;;;33.33;30.05;;;4.40;92.30;;;;;;4974653;28;20402;-77
2020/12/08 01:11:03;;;;;;;32.58;29.58;;;4.40;90.30;;;;;;4974104;28;20206;-77
2020/12/08 01:13:34;;;;;;;32.03;29.10;;;4.40;88.70;;;;;;4974426;28;20228;-77
2020/12/08 01:16:01;;;;;;;33.63;30.70;;;4.30;87.90;;;;;;4973927;28;20704;-77
2020/12/08 01:18:28;;;;;;;88.22;33.75;;;4.50;87.00;;;;;;4973916;28;20203;-77
2020/12/08 01:20:55;;;;;;;34.15;30.90;;;4.40;86.70;;;;;;4974251;28;20662;-77
2020/12/08 01:23:23;;;;;;;33.25;30.20;;;4.30;87.90;;;;;;4991224;23;20225;-77
2020/12/08 01:25:49;;;;;;;924.80;138.20;;;4.40;90.00;;;;;;5015971;28;20226;-77
2020/12/08 01:28:17;;;;;;;32.65;29.55;;;4.30;91.40;;;;;;5032784;28;20753;-77
2020/12/08 01:30:44;;;;;;;32.95;29.77;;;4.30;92.30;;;;;;5032973;28;20276;-77
2020/12/08 01:33:10;;;;;;;32.13;29.27;;;4.30;90.40;;;;;;5032892;28;20259;-77
2020/12/08 01:35:37;;;;;;;34.15;31.15;;;4.40;87.10;;;;;;5017456;28;20191;-77
2020/12/08 01:38:03;;;;;;;32.15;29.25;;;4.40;87.20;;;;;;5013132;28;20694;-77
2020/12/08 01:40:31;;;;;;;143.68;38.30;;;4.40;86.80;;;;;;5013129;28;20678;-77
2020/12/08 01:42:58;;;;;;;33.13;30.13;;;4.50;90.10;;;;;;5013161;28;20200;-77
2020/12/08 01:45:24;;;;;;;34.42;31.35;;;4.40;88.90;;;;;;5020297;28;20194;-77
2020/12/08 01:47:51;;;;;;;30.50;27.60;;;4.40;89.60;;;;;;5012886;28;20764;-77
2020/12/08 01:50:19;;;;;;;35.03;31.50;;;4.40;93.20;;;;;;5013067;28;20598;-77
2020/12/08 01:52:46;;;;;;;32.85;29.80;;;4.40;91.80;;;;;;5012868;28;20206;-77
2020/12/08 01:55:15;;;;;;;33.38;30.27;;;4.30;91.00;;;;;;5015303;28;20212;-77
2020/12/08 01:57:42;;;;;;;32.85;29.80;;;4.30;89.10;;;;;;5023277;28;20215;-77
2020/12/08 02:00:09;;;;;;;31.88;28.98;;;4.30;88.40;;;;;;5023794;28;20197;-77
2020/12/08 02:02:36;;;;;;;33.22;30.30;;;4.30;87.70;;;;;;5032487;28;20675;-77
2020/12/08 02:05:02;;;;;;;33.13;30.02;;;4.30;87.40;;;;;;5032544;28;20314;-77
2020/12/08 02:07:29;;;;;;;35.22;31.98;;;4.40;88.20;;;;;;5025908;28;20210;-77
2020/12/08 02:09:55;;;;;;;33.83;30.63;;;4.40;87.60;;;;;;5012949;28;20202;-77
2020/12/08 02:12:22;;;;;;;33.35;30.42;;;4.40;87.00;;;;;;5012748;28;20689;-77
2020/12/08 02:14:49;;;;;;;34.67;31.48;;;4.40;86.30;;;;;;5013834;28;20215;-77
2020/12/08 02:17:16;;;;;;;34.33;31.35;;;4.30;85.80;;;;;;5012615;28;20228;-77
2020/12/08 02:19:44;;;;;;;35.08;31.73;;;4.30;85.80;;;;;;5012777;28;20202;-77
2020/12/08 02:22:12;;;;;;;34.67;31.23;;;4.20;85.70;;;;;;5012676;28;20202;-77
2020/12/08 02:24:38;;;;;;;36.17;32.67;;;4.20;85.90;;;;;;5012044;28;20207;-77
2020/12/08 02:27:05;;;;;;;35.05;31.90;;;4.10;86.30;;;;;;5012433;28;20301;-77
2020/12/08 02:29:31;;;;;;;34.38;30.98;;;4.10;86.80;;;;;;5012097;28;20360;-77
2020/12/08 02:31:58;;;;;;;34.72;31.52;;;4.10;88.20;;;;;;5012387;28;20282;-77
2020/12/08 02:34:24;;;;;;;36.05;32.60;;;4.00;87.70;;;;;;5012504;28;20222;-77
2020/12/08 02:36:56;;;;;;;34.38;31.17;;;4.10;87.30;;;;;;5015724;28;20218;-77
2020/12/08 02:39:24;;;;;;;34.90;31.70;;;4.10;87.20;;;;;;5027981;28;20207;-77
2020/12/08 02:41:50;;;;;;;34.63;31.27;;;4.00;87.50;;;;;;5036121;28;20205;-77
2020/12/08 02:44:17;;;;;;;35.90;32.50;;;4.00;87.80;;;;;;5035698;28;20193;-77
2020/12/08 02:46:47;;;;;;;36.88;33.50;;;4.00;88.70;;;;;;5035592;28;20221;-77
2020/12/08 02:49:13;;;;;;;34.50;31.38;;;3.90;88.10;;;;;;5026612;28;20205;-77
2020/12/08 02:51:40;;;;;;;32.65;29.60;;;4.00;90.30;;;;;;5017124;28;20249;-77
2020/12/08 02:54:06;;;;;;;34.85;31.50;;;4.00;88.80;;;;;;5033024;28;20221;-77
2020/12/08 02:56:33;;;;;;;35.42;32.22;;;4.00;88.10;;;;;;5023277;28;20213;-77
2020/12/08 02:59:00;;;;;;;35.35;32.10;;;4.00;87.30;;;;;;5015859;28;20191;-77
2020/12/08 03:01:26;;;;;;;37.05;32.78;;;4.00;86.70;;;;;;5015776;28;20194;-77
2020/12/08 03:03:53;;;;;;;52.17;34.97;;;4.00;86.40;;;;;;5029860;28;20542;-77
2020/12/08 03:06:19;;;;;;;35.38;31.83;;;4.00;87.10;;;;;;5033738;28;20220;-77
2020/12/08 03:08:45;;;;;;;37.10;33.58;;;4.00;88.90;;;;;;5035931;28;20227;-77
2020/12/08 03:11:14;;;;;;;37.67;33.92;;;4.00;87.70;;;;;;5035750;28;20203;-77
2020/12/08 03:13:42;;;;;;;37.28;33.67;;;4.00;88.30;;;;;;5022709;28;20268;-77
2020/12/08 03:16:08;;;;;;;37.28;33.42;;;4.00;87.70;;;;;;5015361;28;20305;-77
2020/12/08 03:18:35;;;;;;;37.75;33.88;;;4.00;87.20;;;;;;5015621;28;20198;-77
2020/12/08 03:21:01;;;;;;;37.17;33.78;;;4.00;87.40;;;;;;5015502;28;20288;-77
2020/12/08 03:23:27;;;;;;;36.17;32.78;;;3.90;87.40;;;;;;5034393;28;20696;-77
2020/12/08 03:25:54;;;;;;;35.50;32.20;;;3.80;88.30;;;;;;5034706;28;20555;-77
2020/12/08 03:28:20;;;;;;;36.58;32.95;;;3.80;88.10;;;;;;5035294;28;20288;-77
2020/12/08 03:30:47;;;;;;;201.77;47.72;;;3.80;87.90;;;;;;5034974;28;20284;-77
2020/12/08 03:33:14;;;;;;;36.40;32.85;;;3.80;90.60;;;;;;5017233;28;20214;-78
2020/12/08 03:35:40;;;;;;;36.33;32.88;;;3.80;90.40;;;;;;5015017;28;20197;-77
2020/12/08 03:38:07;;;;;;;37.63;33.50;;;3.80;89.20;;;;;;5015261;28;20540;-77
2020/12/08 03:40:33;;;;;;;37.90;34.50;;;3.70;88.90;;;;;;5015120;28;20405;-77
2020/12/08 03:43:00;;;;;;;37.20;33.67;;;3.60;88.30;;;;;;5033146;28;20542;-77
2020/12/08 03:45:26;;;;;;;37.38;33.92;;;3.60;88.20;;;;;;5034415;28;20190;-77
2020/12/08 03:47:53;;;;;;;35.10;31.48;;;3.70;89.10;;;;;;5033808;28;20685;-77
2020/12/08 03:50:20;;;;;;;37.50;33.63;;;3.70;89.10;;;;;;5034770;28;20203;-77
2020/12/08 03:52:46;;;;;;;331.23;56.92;;;3.60;91.50;;;;;;5018968;28;20194;-77
2020/12/08 03:55:12;;;;;;;35.80;32.10;;;3.60;94.70;;;;;;5014666;28;20719;-77
2020/12/08 03:57:39;;;;;;;36.20;32.53;;;3.60;92.80;;;;;;5014552;28;20583;-77
2020/12/08 04:00:08;;;;;;;36.53;33.15;;;3.60;92.00;;;;;;5014704;28;20198;-77
2020/12/08 04:02:34;;;;;;;38.95;35.05;;;3.50;91.00;;;;;;5024314;28;20228;-77
2020/12/08 04:05:02;;;;;;;114.43;38.08;;;3.50;91.00;;;;;;5031815;28;20269;-77
2020/12/08 04:07:28;;;;;;;956.83;129.43;;;3.50;91.20;;;;;;5014352;28;20268;-77
2020/12/08 04:09:55;;;;;;;39.17;35.25;;;3.50;95.00;;;;;;5026265;28;20196;-77
2020/12/08 04:12:22;;;;;;;39.20;34.92;;;3.50;96.10;;;;;;5034255;28;20194;-77
2020/12/08 04:14:49;;;;;;;38.83;34.83;;;3.40;94.90;;;;;;5034198;28;20701;-77
2020/12/08 04:17:18;;;;;;;39.58;35.47;;;3.40;93.60;;;;;;5031602;28;20225;-77
2020/12/08 04:19:44;;;;;;;37.95;34.45;;;3.40;91.90;;;;;;5028895;28;20189;-77
2020/12/08 04:22:12;;;;;;;38.47;34.95;;;3.40;90.90;;;;;;5033998;28;20197;-77
2020/12/08 04:24:38;;;;;;;37.42;33.85;;;3.30;90.40;;;;;;5033872;28;20202;-77
2020/12/08 04:27:05;;;;;;;1999.90;354.33;;;3.20;90.70;;;;;;5033722;28;20228;-77
2020/12/08 04:29:31;;;;;;;81.07;38.25;;;3.20;94.20;;;;;;5033052;28;20200;-77
2020/12/08 04:31:58;;;;;;;1103.72;167.23;;;3.10;96.20;;;;;;5033369;28;20292;-77
2020/12/08 04:34:24;;;;;;;1999.90;679.63;;;3.10;98.20;;;;;;5033796;28;20579;-77
2020/12/08 04:36:50;;;;;;;39.80;33.70;;;3.10;98.50;;;;;;5033535;28;20706;-77
2020/12/08 04:39:18;;;;;;;41.25;36.85;;;3.10;96.50;;;;;;5016128;28;20205;-77
2020/12/08 04:41:44;;;;;;;37.60;33.80;;;3.00;95.30;;;;;;5013813;28;20552;-77
2020/12/08 04:44:11;;;;;;;39.08;35.03;;;3.00;94.10;;;;;;5014024;28;20671;-77
2020/12/08 04:46:39;;;;;;;39.33;35.22;;;2.90;93.60;;;;;;5013640;28;20218;-77
2020/12/08 04:49:06;;;;;;;39.05;35.22;;;2.90;92.90;;;;;;5029164;28;20197;-77
2020/12/08 04:51:38;;;;;;;37.53;33.70;;;2.90;92.90;;;;;;5022696;28;20324;-78
2020/12/08 04:54:05;;;;;;;165.18;45.35;;;3.00;93.30;;;;;;5018117;28;20263;-77
2020/12/08 04:56:34;;;;;;;40.50;36.08;;;3.00;92.70;;;;;;5033277;28;20698;-77
2020/12/08 04:59:00;;;;;;;37.10;33.50;;;3.00;91.90;;;;;;4993874;28;20837;-77
2020/12/08 05:01:27;;;;;;;36.85;33.25;;;3.00;91.50;;;;;;4993990;28;20288;-77
2020/12/08 05:03:58;;;;;;;38.25;34.45;;;3.00;91.00;;;;;;5015901;28;20276;-78
2020/12/08 05:06:24;;;;;;;37.25;33.47;;;3.10;90.80;;;;;;5033814;28;20225;-77
2020/12/08 05:09:04;;;;;;;37.55;33.95;;;3.10;90.50;;;;;;5029958;28;20546;-77
2020/12/08 05:11:31;;;;;;;37.83;34.00;;;3.10;90.10;;;;;;5028079;28;20203;-77
2020/12/08 05:14:00;;;;;;;41.83;35.85;;;3.00;90.00;;;;;;5023519;28;20214;-77
2020/12/08 05:16:28;;;;;;;37.72;33.65;;;2.90;90.10;;;;;;5013087;28;20236;-77
2020/12/08 05:19:05;;;;;;;37.55;33.47;;;2.80;90.40;;;;;;5013378;28;20193;-77
2020/12/08 05:21:31;;;;;;;36.08;32.72;;;2.80;90.30;;;;;;5025203;28;20193;-77
2020/12/08 05:23:58;;;;;;;36.35;32.72;;;2.80;90.60;;;;;;5033017;28;20670;-77
2020/12/08 05:26:24;;;;;;;37.83;34.33;;;2.80;90.50;;;;;;5033027;28;20232;-77
2020/12/08 05:29:00;;;;;;;37.55;33.85;;;2.90;90.40;;;;;;5033125;28;20201;-77
2020/12/08 05:31:27;;;;;;;38.60;34.67;;;2.90;90.60;;;;;;5021479;28;20252;-77
2020/12/08 05:33:58;;;;;;;38.35;34.15;;;2.90;92.70;;;;;;5013070;28;20713;-77
2020/12/08 05:36:27;;;;;;;39.17;35.00;;;3.00;91.50;;;;;;5012961;28;20218;-77
2020/12/08 05:38:59;;;;;;;38.53;34.63;;;3.00;91.50;;;;;;5013751;28;20216;-77
2020/12/08 05:41:30;;;;;;;358.25;64.43;;;3.00;91.00;;;;;;5023470;28;20198;-77
2020/12/08 05:44:05;;;;;;;39.50;35.40;;;3.00;93.30;;;;;;5032798;28;20251;-77
2020/12/08 05:46:41;;;;;;;39.50;35.33;;;3.00;92.70;;;;;;5032542;28;20221;-77
2020/12/08 05:49:10;;;;;;;39.53;35.80;;;3.00;91.90;;;;;;5032655;28;20221;-77
2020/12/08 05:51:40;;;;;;;38.47;34.58;;;2.90;91.90;;;;;;5020934;28;20204;-77
2020/12/08 05:54:06;;;;;;;39.10;35.22;;;2.90;91.70;;;;;;5012824;28;20691;-77
2020/12/08 05:56:34;;;;;;;41.08;36.85;;;3.00;91.40;;;;;;5012607;28;20218;-77
2020/12/08 05:59:01;;;;;;;38.80;34.85;;;3.00;90.80;;;;;;5012867;28;20206;-77
2020/12/08 06:01:28;;;;;;;39.50;35.30;;;3.00;89.70;;;;;;5013903;28;20573;-77
2020/12/08 06:03:55;;;;;;;38.75;34.60;;;3.00;91.80;;;;;;5023663;28;20186;-77
2020/12/08 06:06:22;;;;;;;40.20;36.10;;;3.10;91.10;;;;;;5012481;28;20222;-77
2020/12/08 06:08:49;;;;;;;39.00;35.00;;;3.20;89.90;;;;;;5012769;28;20204;-77
2020/12/08 06:11:16;;;;;;;41.50;36.95;;;3.10;89.90;;;;;;5015299;28;20201;-77
2020/12/08 06:13:47;;;;;;;36.25;32.55;;;3.10;90.10;;;;;;5031069;28;20216;-77
2020/12/08 06:16:19;;;;;;;41.38;37.13;;;3.00;90.20;;;;;;5016656;28;20224;-77
2020/12/08 06:18:47;;;;;;;268.45;61.35;;;3.00;90.70;;;;;;5034525;28;20205;-77
2020/12/08 06:21:19;;;;;;;38.75;34.75;;;3.00;93.80;;;;;;5035947;28;20197;-77
2020/12/08 06:23:46;;;;;;;35.88;32.17;;;3.10;93.20;;;;;;5036331;28;20201;-77
2020/12/08 06:26:13;;;;;;;38.97;34.78;;;3.10;91.90;;;;;;5035879;28;20217;-77
2020/12/08 06:28:39;;;;;;;40.53;36.28;;;3.00;91.70;;;;;;5019237;28;20190;-77
2020/12/08 06:31:08;;;;;;;37.10;33.17;;;3.00;91.40;;;;;;5026265;28;20232;-78
2020/12/08 06:33:47;;;;;;;38.88;34.95;;;3.00;91.00;;;;;;5034197;28;20220;-77
2020/12/08 06:36:13;;;;;;;854.35;126.40;;;3.00;91.00;;;;;;5035883;28;20217;-77
2020/12/08 06:38:40;;;;;;;58.20;37.35;;;2.90;91.10;;;;;;5036043;28;20201;-77
2020/12/08 06:41:06;;;;;;;40.85;36.55;;;2.90;92.40;;;;;;5034734;28;20201;-77
2020/12/08 06:43:38;;;;;;;40.28;36.08;;;2.90;92.40;;;;;;5016221;28;20190;-77
2020/12/08 06:46:09;;;;;;;38.05;34.25;;;3.00;91.90;;;;;;5015838;28;20229;-77
2020/12/08 06:48:35;;;;;;;55.25;37.63;;;3.00;91.20;;;;;;5016435;28;20265;-77
2020/12/08 06:51:04;;;;;;;40.92;36.20;;;3.00;91.50;;;;;;5026097;28;20619;-77
2020/12/08 06:53:31;;;;;;;39.05;35.03;;;2.90;92.50;;;;;;5035823;28;20356;-77
2020/12/08 06:55:57;;;;;;;41.50;37.00;;;3.00;91.80;;;;;;5035434;28;20736;-77
2020/12/08 06:58:23;;;;;;;40.72;36.30;;;3.10;91.00;;;;;;5035645;28;20205;-77
2020/12/08 07:00:51;;;;;;;41.55;37.25;;;3.00;91.50;;;;;;5035158;28;20215;-77
2020/12/08 07:03:18;;;;;;;39.28;35.47;;;2.90;90.70;;;;;;5020420;28;20786;-77
2020/12/08 07:05:45;;;;;;;38.15;34.00;;;2.80;90.40;;;;;;5016406;28;20194;-77
2020/12/08 07:08:16;;;;;;;42.50;37.83;;;2.70;90.80;;;;;;5015776;28;20198;-77
2020/12/08 07:10:43;;;;;;;42.88;36.90;;;2.60;90.90;;;;;;5018015;28;20202;-77
2020/12/08 07:13:12;;;;;;;43.95;39.30;;;2.60;90.80;;;;;;5015807;28;20205;-77
2020/12/08 07:15:38;;;;;;;40.75;36.45;;;2.50;91.40;;;;;;5015325;28;20218;-77
2020/12/08 07:18:06;;;;;;;41.42;36.88;;;2.50;91.50;;;;;;5034687;28;20215;-77
2020/12/08 07:20:34;;;;;;;44.92;38.88;;;2.50;91.40;;;;;;5035466;28;20211;-77
2020/12/08 07:23:02;;;;;;;1999.90;343.05;;;2.50;91.40;;;;;;5033875;28;20666;-77
2020/12/08 07:25:30;;;;;;;42.42;37.35;;;2.50;93.90;;;;;;5023460;28;20601;-77
2020/12/08 07:27:57;;;;;;;40.67;36.22;;;2.50;93.70;;;;;;5015472;28;20198;-77
2020/12/08 07:30:24;;;;;;;47.75;39.63;;;2.50;92.90;;;;;;5015074;28;20280;-77
2020/12/08 07:32:51;;;;;;;42.47;37.83;;;2.60;92.30;;;;;;5015449;28;20201;-77
2020/12/08 07:35:23;;;;;;;40.13;36.20;;;2.70;91.80;;;;;;5016456;28;20218;-77
2020/12/08 07:37:52;;;;;;;40.63;36.40;;;2.80;91.10;;;;;;5033248;28;20265;-77
2020/12/08 07:40:18;;;;;;;42.47;37.25;;;2.80;90.50;;;;;;5034620;28;20197;-77
2020/12/08 07:42:53;;;;;;;47.50;39.80;;;2.90;90.00;;;;;;5034938;28;20677;-77
2020/12/08 07:45:20;;;;;;;41.42;36.97;;;2.90;89.60;;;;;;5034804;28;20218;-77
2020/12/08 07:47:51;;;;;;;957.30;141.50;;;2.90;89.30;;;;;;5033042;28;20319;-77
2020/12/08 07:50:22;;;;;;;69.00;41.72;;;2.70;89.70;;;;;;5034743;28;20718;-77
2020/12/08 07:52:59;;;;;;;1976.93;314.55;;;2.60;92.10;;;;;;5019674;28;20193;-77
2020/12/08 07:55:26;;;;;;;211.07;54.15;;;2.60;96.00;;;;;;5033992;28;20216;-77
2020/12/08 07:57:54;;;;;;;46.03;40.75;;;2.60;95.60;;;;;;5034674;28;20655;-77
2020/12/08 08:00:20;;;;;;;775.28;125.97;;;2.70;94.60;;;;;;5034587;28;20285;-77
2020/12/08 08:02:47;;;;;;;47.33;39.47;;;2.80;94.70;;;;;;5032151;28;20198;-77
2020/12/08 08:05:13;;;;;;;1054.22;164.98;;;2.70;94.80;;;;;;5023168;28;20327;-77
2020/12/08 08:07:39;;;;;;;326.17;68.68;;;2.70;94.40;;;;;;5034287;28;20213;-77
2020/12/08 08:10:06;;;;;;;120.97;46.05;;;2.70;96.30;;;;;;5034860;28;20194;-77
2020/12/08 08:12:33;;;;;;;44.47;39.72;;;2.80;95.10;;;;;;5033933;28;20227;-77
2020/12/08 08:15:00;;;;;;;42.20;37.85;;;2.70;93.80;;;;;;5033125;28;20225;-77
2020/12/08 08:17:26;;;;;;;43.80;38.65;;;2.70;93.30;;;;;;5015219;28;20214;-77
2020/12/08 08:19:52;;;;;;;43.65;39.03;;;2.70;92.00;;;;;;5034059;28;20205;-77
2020/12/08 08:22:19;;;;;;;43.38;38.67;;;2.70;91.40;;;;;;5033557;28;20569;-77
2020/12/08 08:24:45;;;;;;;43.10;38.45;;;2.70;91.00;;;;;;5033561;28;20198;-77
2020/12/08 08:27:11;;;;;;;46.63;41.72;;;2.80;90.60;;;;;;5035268;28;20698;-77
2020/12/08 08:29:38;;;;;;;43.10;38.40;;;2.80;90.10;;;;;;5016569;28;20201;-77
2020/12/08 08:32:05;;;;;;;1999.90;573.50;;;2.90;89.70;;;;;;5014018;28;20217;-77
2020/12/08 08:34:31;;;;;;;45.40;39.88;;;2.80;91.10;;;;;;5013683;28;20647;-77
2020/12/08 08:36:58;;;;;;;50.47;42.97;;;2.80;92.20;;;;;;5013483;28;20212;-77
2020/12/08 08:39:25;;;;;;;46.22;39.67;;;2.80;92.20;;;;;;5014078;28;20218;-77
2020/12/08 08:41:52;;;;;;;49.95;41.13;;;2.80;91.30;;;;;;5021300;28;20200;-77
2020/12/08 08:44:18;;;;;;;45.28;40.38;;;2.90;90.40;;;;;;5014601;28;20659;-77
2020/12/08 08:46:45;;;;;;;46.47;41.38;;;2.90;90.00;;;;;;5025141;28;20242;-78
2020/12/08 08:49:14;;;;;;;45.67;40.83;;;2.90;90.00;;;;;;5031894;28;20196;-77
2020/12/08 08:51:41;;;;;;;51.13;42.55;;;2.80;90.90;;;;;;5030864;28;20678;-78
2020/12/08 08:54:08;;;;;;;47.30;42.50;;;2.90;90.70;;;;;;5033472;28;20702;-77
2020/12/08 08:56:34;;;;;;;46.58;41.15;;;2.90;89.90;;;;;;5033330;28;20271;-77
2020/12/08 08:59:01;;;;;;;48.22;42.05;;;2.90;90.00;;;;;;5033380;28;20775;-77
2020/12/08 09:01:27;;;;;;;44.13;39.42;;;3.00;89.30;;;;;;5031694;28;20193;-77
2020/12/08 09:03:53;;;;;;;45.13;40.25;;;3.10;89.00;;;;;;5033482;28;20554;-77
2020/12/08 09:06:21;;;;;;;44.88;39.50;;;3.20;89.80;;;;;;5033171;28;20227;-77
2020/12/08 09:08:47;;;;;;;45.28;40.67;;;3.20;95.50;;;;;;5015291;28;20336;-77
2020/12/08 09:11:13;;;;;;;48.45;43.35;;;3.20;92.20;;;;;;5019969;28;20193;-77
2020/12/08 09:13:39;;;;;;;47.55;42.67;;;3.30;91.50;;;;;;5033594;28;20197;-77
2020/12/08 09:16:06;;;;;;;46.97;41.95;;;3.30;90.50;;;;;;5025069;28;20301;-77
2020/12/08 09:18:32;;;;;;;45.95;40.95;;;3.40;90.20;;;;;;5013700;28;20655;-77
2020/12/08 09:20:59;;;;;;;43.05;38.83;;;3.60;89.30;;;;;;5016415;28;20189;-77
2020/12/08 09:23:26;;;;;;;42.88;38.42;;;3.70;88.20;;;;;;5032913;28;20202;-78
2020/12/08 09:25:54;;;;;;;42.45;37.95;;;3.80;87.10;;;;;;5027188;28;20213;-77
2020/12/08 09:28:21;;;;;;;42.72;38.53;;;3.90;86.90;;;;;;5029989;28;20563;-77
2020/12/08 09:30:47;;;;;;;42.38;37.85;;;4.00;86.30;;;;;;5020353;28;20198;-77
2020/12/08 09:33:13;;;;;;;44.47;39.97;;;4.00;85.30;;;;;;5019747;28;20190;-77
2020/12/08 09:35:40;;;;;;;42.47;38.17;;;4.10;85.40;;;;;;5032085;28;20694;-77
2020/12/08 09:38:06;;;;;;;42.88;38.40;;;4.20;84.90;;;;;;5033489;28;20621;-77
2020/12/08 09:40:34;;;;;;;42.83;38.33;;;4.30;84.60;;;;;;5023311;28;20253;-77
2020/12/08 09:43:00;;;;;;;46.03;41.17;;;4.30;84.70;;;;;;5013584;28;20197;-77
2020/12/08 09:45:27;;;;;;;43.30;38.95;;;4.40;84.40;;;;;;5012540;28;20285;-77
2020/12/08 09:47:53;;;;;;;44.40;39.80;;;4.40;84.10;;;;;;5014653;28;20202;-77
2020/12/08 09:50:19;;;;;;;44.13;39.60;;;4.40;85.10;;;;;;5032824;28;20194;-77
2020/12/08 09:52:46;;;;;;;43.78;39.17;;;4.50;84.30;;;;;;5031705;28;20189;-77
2020/12/08 09:55:12;;;;;;;45.42;41.03;;;4.60;83.50;;;;;;5032647;28;20235;-77
2020/12/08 09:57:39;;;;;;;46.05;41.30;;;4.60;82.30;;;;;;5032967;28;20732;-77
2020/12/08 10:00:07;;;;;;;42.35;38.15;;;4.50;82.60;;;;;;5028690;28;20233;-77
2020/12/08 10:02:34;;;;;;;45.22;40.75;;;4.60;81.50;;;;;;5022430;28;20200;-77
2020/12/08 10:05:00;;;;;;;44.67;40.17;;;4.40;82.30;;;;;;5013086;28;20190;-77
2020/12/08 10:07:27;;;;;;;42.50;38.40;;;4.50;82.10;;;;;;5012736;28;20389;-77
2020/12/08 10:09:53;;;;;;;40.90;37.10;;;4.50;82.40;;;;;;5029442;28;20204;-77
2020/12/08 10:12:19;;;;;;;42.78;38.33;;;4.70;82.60;;;;;;5032497;28;20201;-77
2020/12/08 10:14:48;;;;;;;42.78;38.38;;;4.80;80.20;;;;;;5032455;28;20311;-77
2020/12/08 10:17:15;;;;;;;44.63;39.88;;;4.80;79.80;;;;;;5026072;28;20209;-77
2020/12/08 10:19:42;;;;;;;42.97;38.78;;;4.80;79.60;;;;;;5012608;28;20209;-77
2020/12/08 10:22:08;;;;;;;41.53;37.42;;;4.80;79.30;;;;;;5012737;28;20559;-77
2020/12/08 10:24:36;;;;;;;43.53;39.33;;;4.70;79.50;;;;;;5012397;28;20202;-77
2020/12/08 10:27:02;;;;;;;43.00;38.65;;;4.60;79.60;;;;;;5016070;28;20215;-77
2020/12/08 10:29:29;;;;;;;43.67;39.17;;;4.60;79.80;;;;;;5032282;28;20205;-77
2020/12/08 10:31:56;;;;;;;42.63;38.58;;;4.60;80.40;;;;;;5032306;28;20201;-77
2020/12/08 10:34:23;;;;;;;42.22;37.85;;;4.70;81.00;;;;;;5032323;28;20226;-77
2020/12/08 10:36:49;;;;;;;41.35;37.13;;;4.70;81.80;;;;;;5029702;28;20217;-77
2020/12/08 10:39:16;;;;;;;40.00;36.00;;;4.80;82.30;;;;;;5017667;28;20692;-77
2020/12/08 10:41:42;;;;;;;41.97;37.78;;;4.90;81.30;;;;;;5012576;28;20198;-77
2020/12/08 10:44:09;;;;;;;43.00;38.80;;;5.00;79.30;;;;;;5012473;28;20195;-77
2020/12/08 10:46:35;;;;;;;42.17;37.83;;;5.10;78.70;;;;;;5012130;28;20230;-77
2020/12/08 10:49:03;;;;;;;43.17;38.97;;;5.10;77.70;;;;;;5030060;28;20198;-77
2020/12/08 10:51:30;;;;;;;45.50;40.70;;;5.30;77.20;;;;;;5032236;28;20197;-77
2020/12/08 10:53:56;;;;;;;44.45;40.13;;;5.30;77.10;;;;;;5032178;28;20200;-77
2020/12/08 10:56:23;;;;;;;44.17;39.67;;;5.40;76.90;;;;;;5032832;28;20229;-77
2020/12/08 10:58:51;;;;;;;43.03;39.00;;;5.40;77.10;;;;;;5019199;28;20198;-77
2020/12/08 11:01:19;;;;;;;41.83;37.88;;;5.30;77.80;;;;;;5020460;28;20656;-77
2020/12/08 11:03:45;;;;;;;42.33;38.13;;;5.20;77.70;;;;;;5015982;28;20542;-77
2020/12/08 11:06:18;;;;;;;42.13;38.13;;;5.30;78.40;;;;;;5015490;28;20218;-77
2020/12/08 11:08:44;;;;;;;44.55;39.90;;;5.30;77.50;;;;;;5015834;28;20210;-77
2020/12/08 11:11:10;;;;;;;44.47;40.13;;;5.30;77.70;;;;;;5022069;28;20194;-77
2020/12/08 11:13:37;;;;;;;44.97;40.30;;;5.30;77.70;;;;;;5034757;28;20559;-77
2020/12/08 11:16:04;;;;;;;44.15;40.05;;;5.30;77.60;;;;;;5035051;28;20226;-77
2020/12/08 11:18:30;;;;;;;41.38;37.67;;;5.20;78.50;;;;;;5035403;28;20203;-77
2020/12/08 11:20:57;;;;;;;40.92;37.17;;;5.30;78.30;;;;;;5027571;28;20532;-77
2020/12/08 11:23:24;;;;;;;43.13;38.85;;;5.40;77.80;;;;;;5015652;28;20217;-77
2020/12/08 11:25:50;;;;;;;44.88;40.10;;;5.40;77.80;;;;;;5016173;28;20303;-77
2020/12/08 11:28:16;;;;;;;42.58;38.53;;;5.40;77.30;;;;;;5035892;28;20564;-77
2020/12/08 11:30:43;;;;;;;42.70;38.63;;;5.60;76.50;;;;;;5030516;28;20199;-77
2020/12/08 11:33:10;;;;;;;43.95;39.65;;;5.60;76.20;;;;;;5016868;28;20639;-78
2020/12/08 11:35:36;;;;;;;43.80;39.67;;;5.70;76.00;;;;;;5015098;28;20220;-77
2020/12/08 11:38:03;;;;;;;43.55;39.35;;;5.50;76.80;;;;;;5015109;28;20202;-77
2020/12/08 11:40:30;;;;;;;44.90;40.35;;;5.50;77.30;;;;;;5018089;28;20193;-77
2020/12/08 11:42:56;;;;;;;43.67;39.30;;;5.70;76.40;;;;;;5035090;28;20194;-77
2020/12/08 11:45:22;;;;;;;45.00;40.75;;;5.60;77.00;;;;;;5034365;28;20213;-77
2020/12/08 11:47:49;;;;;;;43.95;39.60;;;5.50;77.30;;;;;;5018809;28;20597;-77
2020/12/08 11:50:15;;;;;;;42.63;38.60;;;5.60;77.50;;;;;;5014885;28;20200;-77
2020/12/08 11:52:42;;;;;;;42.42;38.35;;;5.70;77.10;;;;;;5014756;28;20563;-77
2020/12/08 11:55:08;;;;;;;45.58;41.08;;;5.70;76.90;;;;;;5014771;28;20230;-77
2020/12/08 11:57:36;;;;;;;44.45;40.03;;;5.70;76.40;;;;;;5016333;28;20586;-77
2020/12/08 12:00:05;;;;;;;43.30;39.10;;;5.90;75.90;;;;;;5034692;28;20283;-77
2020/12/08 12:02:31;;;;;;;43.13;38.70;;;6.00;75.30;;;;;;5034489;28;20207;-77
2020/12/08 12:04:57;;;;;;;43.28;38.67;;;5.80;75.40;;;;;;5020902;28;20189;-78
2020/12/08 12:07:24;;;;;;;42.40;38.15;;;5.90;76.50;;;;;;5013993;28;20587;-77
2020/12/08 12:09:50;;;;;;;42.65;38.75;;;6.00;76.20;;;;;;5014251;28;20205;-77
2020/12/08 12:12:16;;;;;;;45.92;41.38;;;6.20;75.10;;;;;;5017272;28;20189;-77
2020/12/08 12:14:44;;;;;;;43.63;39.08;;;6.20;76.80;;;;;;5034240;28;20220;-78
2020/12/08 12:17:10;;;;;;;44.15;40.15;;;6.40;74.80;;;;;;5019481;28;20220;-78
2020/12/08 12:19:36;;;;;;;43.90;39.80;;;6.50;74.00;;;;;;5014967;28;20205;-77
2020/12/08 12:22:03;;;;;;;46.28;41.88;;;6.50;73.90;;;;;;5015453;28;20202;-77
2020/12/08 12:27:51;;;;;;;42.28;38.42;;;6.80;72.10;;;;;;5034007;28;20261;-77
2020/12/08 12:30:18;;;;;;;41.75;37.85;;;6.50;72.30;;;;;;5033746;28;20209;-77
2020/12/08 12:32:44;;;;;;;42.90;39.00;;;6.10;73.50;;;;;;5017895;28;20670;-77
2020/12/08 12:35:11;;;;;;;39.42;36.03;;;6.10;73.70;;;;;;5013956;28;20291;-77
2020/12/08 12:37:37;;;;;;;41.63;37.83;;;6.20;73.50;;;;;;5013853;28;20222;-77